sensor_id;sensor_type;location;lat;lon;timestamp;temperature;humidity
52058;DHT22;38063;53.210;6.504;2023-09-08T00:00:57;19.80;99.90
52058;DHT22;38063;53.210;6.504;2023-09-08T00:03:22;19.70;99.90
52058;DHT22;38063;53.210;6.504;2023-09-08T00:05:48;19.60;99.90
52058;DHT22;38063;53.210;6.504;2023-09-08T00:08:14;19.60;99.90
52058;DHT22;38063;53.210;6.504;2023-09-08T00:10:39;19.50;99.90
52058;DHT22;38063;53.210;6.504;2023-09-08T00:13:06;19.50;99.90
52058;DHT22;38063;53.210;6.504;2023-09-08T00:15:34;19.50;99.90
52058;DHT22;38063;53.210;6.504;2023-09-08T00:18:00;19.50;99.90
52058;DHT22;38063;53.210;6.504;2023-09-08T00:20:26;19.40;99.90
52058;DHT22;38063;53.210;6.504;2023-09-08T00:22:52;19.40;99.90
52058;DHT22;38063;53.210;6.504;2023-09-08T00:25:18;19.30;99.90
52058;DHT22;38063;53.210;6.504;2023-09-08T00:27:43;19.30;99.90
52058;DHT22;38063;53.210;6.504;2023-09-08T00:30:09;19.30;99.90
52058;DHT22;38063;53.210;6.504;2023-09-08T00:32:36;19.30;99.90
52058;DHT22;38063;53.210;6.504;2023-09-08T00:35:01;19.30;99.90
52058;DHT22;38063;53.210;6.504;2023-09-08T00:37:27;19.20;99.90
52058;DHT22;38063;53.210;6.504;2023-09-08T00:39:53;19.20;99.90
52058;DHT22;38063;53.210;6.504;2023-09-08T00:42:18;19.10;99.90
52058;DHT22;38063;53.210;6.504;2023-09-08T00:44:44;19.10;99.90
52058;DHT22;38063;53.210;6.504;2023-09-08T00:47:09;19.10;99.90
52058;DHT22;38063;53.210;6.504;2023-09-08T00:49:35;19.10;99.90
52058;DHT22;38063;53.210;6.504;2023-09-08T00:52:03;19.00;99.90
52058;DHT22;38063;53.210;6.504;2023-09-08T00:54:29;19.00;99.90
52058;DHT22;38063;53.210;6.504;2023-09-08T00:56:56;18.90;99.90
52058;DHT22;38063;53.210;6.504;2023-09-08T00:59:25;18.80;99.90
52058;DHT22;38063;53.210;6.504;2023-09-08T01:01:52;18.80;99.90
52058;DHT22;38063;53.210;6.504;2023-09-08T01:04:17;18.80;99.90
52058;DHT22;38063;53.210;6.504;2023-09-08T01:06:44;18.80;99.90
52058;DHT22;38063;53.210;6.504;2023-09-08T01:09:11;18.70;99.90
52058;DHT22;38063;53.210;6.504;2023-09-08T01:11:37;18.70;99.90
52058;DHT22;38063;53.210;6.504;2023-09-08T01:14:02;18.70;99.90
52058;DHT22;38063;53.210;6.504;2023-09-08T01:16:28;18.70;99.90
52058;DHT22;38063;53.210;6.504;2023-09-08T01:18:54;18.70;99.90
52058;DHT22;38063;53.210;6.504;2023-09-08T01:23:59;18.70;99.90
52058;DHT22;38063;53.210;6.504;2023-09-08T01:26:36;18.60;99.90
52058;DHT22;38063;53.210;6.504;2023-09-08T01:29:05;18.60;99.90
52058;DHT22;38063;53.210;6.504;2023-09-08T01:31:31;18.60;99.90
52058;DHT22;38063;53.210;6.504;2023-09-08T01:33:57;18.60;99.90
52058;DHT22;38063;53.210;6.504;2023-09-08T01:36:23;18.50;99.90
52058;DHT22;38063;53.210;6.504;2023-09-08T01:38:48;18.50;99.90
52058;DHT22;38063;53.210;6.504;2023-09-08T01:41:14;18.40;99.90
52058;DHT22;38063;53.210;6.504;2023-09-08T01:43:39;18.40;99.90
52058;DHT22;38063;53.210;6.504;2023-09-08T01:46:05;18.40;99.90
52058;DHT22;38063;53.210;6.504;2023-09-08T01:48:31;18.40;99.90
52058;DHT22;38063;53.210;6.504;2023-09-08T01:50:56;18.30;99.90
52058;DHT22;38063;53.210;6.504;2023-09-08T01:53:22;18.30;99.90
52058;DHT22;38063;53.210;6.504;2023-09-08T01:55:47;18.30;99.90
52058;DHT22;38063;53.210;6.504;2023-09-08T01:58:13;18.30;99.90
52058;DHT22;38063;53.210;6.504;2023-09-08T02:00:39;18.30;99.90
52058;DHT22;38063;53.210;6.504;2023-09-08T02:03:04;18.30;99.90
52058;DHT22;38063;53.210;6.504;2023-09-08T02:05:30;18.20;99.90
52058;DHT22;38063;53.210;6.504;2023-09-08T02:07:56;18.10;99.90
52058;DHT22;38063;53.210;6.504;2023-09-08T02:10:22;18.10;99.90
52058;DHT22;38063;53.210;6.504;2023-09-08T02:12:48;18.10;99.90
52058;DHT22;38063;53.210;6.504;2023-09-08T02:15:13;18.10;99.90
52058;DHT22;38063;53.210;6.504;2023-09-08T02:17:41;18.10;99.90
52058;DHT22;38063;53.210;6.504;2023-09-08T02:20:07;18.00;99.90
52058;DHT22;38063;53.210;6.504;2023-09-08T02:22:33;18.00;99.90
52058;DHT22;38063;53.210;6.504;2023-09-08T02:24:58;18.00;99.90
52058;DHT22;38063;53.210;6.504;2023-09-08T02:27:24;18.00;99.90
52058;DHT22;38063;53.210;6.504;2023-09-08T02:29:50;17.90;99.90
52058;DHT22;38063;53.210;6.504;2023-09-08T02:32:15;17.90;99.90
52058;DHT22;38063;53.210;6.504;2023-09-08T02:34:41;17.90;99.90
52058;DHT22;38063;53.210;6.504;2023-09-08T02:37:08;17.90;99.90
52058;DHT22;38063;53.210;6.504;2023-09-08T02:39:33;17.90;99.90
52058;DHT22;38063;53.210;6.504;2023-09-08T02:41:59;17.80;99.90
52058;DHT22;38063;53.210;6.504;2023-09-08T02:44:26;17.80;99.90
52058;DHT22;38063;53.210;6.504;2023-09-08T02:46:52;17.80;99.90
52058;DHT22;38063;53.210;6.504;2023-09-08T02:49:18;17.80;99.90
52058;DHT22;38063;53.210;6.504;2023-09-08T02:51:44;17.80;99.90
52058;DHT22;38063;53.210;6.504;2023-09-08T02:54:09;17.80;99.90
52058;DHT22;38063;53.210;6.504;2023-09-08T02:56:35;17.80;99.90
52058;DHT22;38063;53.210;6.504;2023-09-08T02:59:00;17.70;99.90
52058;DHT22;38063;53.210;6.504;2023-09-08T03:01:27;17.70;99.90
52058;DHT22;38063;53.210;6.504;2023-09-08T03:03:53;17.70;99.90
52058;DHT22;38063;53.210;6.504;2023-09-08T03:06:19;17.60;99.90
52058;DHT22;38063;53.210;6.504;2023-09-08T03:08:46;17.60;99.90
52058;DHT22;38063;53.210;6.504;2023-09-08T03:11:12;17.60;99.90
52058;DHT22;38063;53.210;6.504;2023-09-08T03:13:38;17.60;99.90
52058;DHT22;38063;53.210;6.504;2023-09-08T03:16:08;17.60;99.90
52058;DHT22;38063;53.210;6.504;2023-09-08T03:18:34;17.50;99.90
52058;DHT22;38063;53.210;6.504;2023-09-08T03:21:02;17.50;99.90
52058;DHT22;38063;53.210;6.504;2023-09-08T03:23:38;17.50;99.90
52058;DHT22;38063;53.210;6.504;2023-09-08T03:26:03;17.40;99.90
52058;DHT22;38063;53.210;6.504;2023-09-08T03:28:31;17.40;99.90
52058;DHT22;38063;53.210;6.504;2023-09-08T03:30:56;17.40;99.90
52058;DHT22;38063;53.210;6.504;2023-09-08T03:33:22;17.40;99.90
52058;DHT22;38063;53.210;6.504;2023-09-08T03:35:47;17.40;99.90
52058;DHT22;38063;53.210;6.504;2023-09-08T03:38:13;17.30;99.90
52058;DHT22;38063;53.210;6.504;2023-09-08T03:40:39;17.30;99.90
52058;DHT22;38063;53.210;6.504;2023-09-08T03:43:04;17.30;99.90
52058;DHT22;38063;53.210;6.504;2023-09-08T03:45:30;17.30;99.90
52058;DHT22;38063;53.210;6.504;2023-09-08T03:47:56;17.20;99.90
52058;DHT22;38063;53.210;6.504;2023-09-08T03:50:21;17.20;99.90
52058;DHT22;38063;53.210;6.504;2023-09-08T03:52:47;17.20;99.90
52058;DHT22;38063;53.210;6.504;2023-09-08T03:55:13;17.20;99.90
52058;DHT22;38063;53.210;6.504;2023-09-08T03:57:39;17.20;99.90
52058;DHT22;38063;53.210;6.504;2023-09-08T04:00:05;17.20;99.90
52058;DHT22;38063;53.210;6.504;2023-09-08T04:02:32;17.20;99.90
52058;DHT22;38063;53.210;6.504;2023-09-08T04:04:58;17.10;99.90
52058;DHT22;38063;53.210;6.504;2023-09-08T04:07:24;17.10;99.90
52058;DHT22;38063;53.210;6.504;2023-09-08T04:20:23;17.00;99.90
52058;DHT22;38063;53.210;6.504;2023-09-08T04:22:49;17.00;99.90
52058;DHT22;38063;53.210;6.504;2023-09-08T04:25:15;17.00;99.90
52058;DHT22;38063;53.210;6.504;2023-09-08T04:27:41;16.90;99.90
52058;DHT22;38063;53.210;6.504;2023-09-08T04:30:07;16.90;99.90
52058;DHT22;38063;53.210;6.504;2023-09-08T04:32:33;16.90;99.90
52058;DHT22;38063;53.210;6.504;2023-09-08T04:34:59;16.90;99.90
52058;DHT22;38063;53.210;6.504;2023-09-08T04:37:25;16.80;99.90
52058;DHT22;38063;53.210;6.504;2023-09-08T04:39:50;16.90;99.90
52058;DHT22;38063;53.210;6.504;2023-09-08T04:42:16;16.90;99.90
52058;DHT22;38063;53.210;6.504;2023-09-08T04:44:41;16.80;99.90
52058;DHT22;38063;53.210;6.504;2023-09-08T04:47:07;16.80;99.90
52058;DHT22;38063;53.210;6.504;2023-09-08T04:49:33;16.80;99.90
52058;DHT22;38063;53.210;6.504;2023-09-08T04:51:58;16.90;99.90
52058;DHT22;38063;53.210;6.504;2023-09-08T04:54:24;16.90;99.90
52058;DHT22;38063;53.210;6.504;2023-09-08T04:56:53;16.80;99.90
52058;DHT22;38063;53.210;6.504;2023-09-08T04:59:19;16.90;99.90
52058;DHT22;38063;53.210;6.504;2023-09-08T05:01:45;16.80;99.90
52058;DHT22;38063;53.210;6.504;2023-09-08T05:04:11;16.80;99.90
52058;DHT22;38063;53.210;6.504;2023-09-08T05:06:37;16.80;99.90
52058;DHT22;38063;53.210;6.504;2023-09-08T05:09:03;16.80;99.90
52058;DHT22;38063;53.210;6.504;2023-09-08T05:11:28;16.80;99.90
52058;DHT22;38063;53.210;6.504;2023-09-08T05:13:54;16.80;99.90
52058;DHT22;38063;53.210;6.504;2023-09-08T05:16:20;16.80;99.90
52058;DHT22;38063;53.210;6.504;2023-09-08T05:19:01;16.80;99.90
52058;DHT22;38063;53.210;6.504;2023-09-08T05:21:27;16.80;99.90
52058;DHT22;38063;53.210;6.504;2023-09-08T05:23:52;17.00;99.90
52058;DHT22;38063;53.210;6.504;2023-09-08T05:26:18;16.90;99.90
52058;DHT22;38063;53.210;6.504;2023-09-08T05:28:44;16.90;99.90
52058;DHT22;38063;53.210;6.504;2023-09-08T05:31:09;16.90;99.90
52058;DHT22;38063;53.210;6.504;2023-09-08T05:33:35;16.90;99.90
52058;DHT22;38063;53.210;6.504;2023-09-08T05:36:00;16.90;99.90
52058;DHT22;38063;53.210;6.504;2023-09-08T05:38:26;16.90;99.90
52058;DHT22;38063;53.210;6.504;2023-09-08T05:40:53;16.90;99.90
52058;DHT22;38063;53.210;6.504;2023-09-08T05:43:19;17.00;99.90
52058;DHT22;38063;53.210;6.504;2023-09-08T05:45:44;17.00;99.90
52058;DHT22;38063;53.210;6.504;2023-09-08T05:48:10;17.00;99.90
52058;DHT22;38063;53.210;6.504;2023-09-08T05:50:36;17.00;99.90
52058;DHT22;38063;53.210;6.504;2023-09-08T05:53:02;17.10;99.90
52058;DHT22;38063;53.210;6.504;2023-09-08T05:55:28;17.10;99.90
52058;DHT22;38063;53.210;6.504;2023-09-08T05:57:53;17.10;99.90
52058;DHT22;38063;53.210;6.504;2023-09-08T06:00:19;17.10;99.90
52058;DHT22;38063;53.210;6.504;2023-09-08T06:02:45;17.10;99.90
52058;DHT22;38063;53.210;6.504;2023-09-08T06:05:11;17.10;99.90
52058;DHT22;38063;53.210;6.504;2023-09-08T06:07:36;17.20;99.90
52058;DHT22;38063;53.210;6.504;2023-09-08T06:10:02;17.20;99.90
52058;DHT22;38063;53.210;6.504;2023-09-08T06:12:28;17.20;99.90
52058;DHT22;38063;53.210;6.504;2023-09-08T06:14:54;17.20;99.90
52058;DHT22;38063;53.210;6.504;2023-09-08T06:17:20;17.30;99.90
52058;DHT22;38063;53.210;6.504;2023-09-08T06:19:45;17.30;99.90
52058;DHT22;38063;53.210;6.504;2023-09-08T06:22:11;17.30;99.90
52058;DHT22;38063;53.210;6.504;2023-09-08T06:24:37;17.30;99.90
52058;DHT22;38063;53.210;6.504;2023-09-08T06:27:03;17.40;99.90
52058;DHT22;38063;53.210;6.504;2023-09-08T06:29:28;17.40;99.90
52058;DHT22;38063;53.210;6.504;2023-09-08T06:31:54;17.40;99.90
52058;DHT22;38063;53.210;6.504;2023-09-08T06:34:19;17.50;99.90
52058;DHT22;38063;53.210;6.504;2023-09-08T06:36:48;17.50;99.90
52058;DHT22;38063;53.210;6.504;2023-09-08T06:39:13;17.50;99.90
52058;DHT22;38063;53.210;6.504;2023-09-08T06:41:39;17.60;99.90
52058;DHT22;38063;53.210;6.504;2023-09-08T06:44:05;17.70;99.90
52058;DHT22;38063;53.210;6.504;2023-09-08T06:46:30;17.70;99.90
52058;DHT22;38063;53.210;6.504;2023-09-08T06:48:56;17.80;99.90
52058;DHT22;38063;53.210;6.504;2023-09-08T06:51:22;17.90;99.90
52058;DHT22;38063;53.210;6.504;2023-09-08T06:53:55;18.00;99.90
52058;DHT22;38063;53.210;6.504;2023-09-08T06:56:22;18.10;99.90
52058;DHT22;38063;53.210;6.504;2023-09-08T06:58:47;18.20;99.90
52058;DHT22;38063;53.210;6.504;2023-09-08T07:01:13;18.20;99.90
52058;DHT22;38063;53.210;6.504;2023-09-08T07:03:38;18.30;99.90
52058;DHT22;38063;53.210;6.504;2023-09-08T07:06:04;18.40;99.90
52058;DHT22;38063;53.210;6.504;2023-09-08T07:08:30;18.50;99.90
52058;DHT22;38063;53.210;6.504;2023-09-08T07:10:55;18.60;99.90
52058;DHT22;38063;53.210;6.504;2023-09-08T07:13:21;18.70;99.90
52058;DHT22;38063;53.210;6.504;2023-09-08T07:15:47;18.70;99.90
52058;DHT22;38063;53.210;6.504;2023-09-08T07:18:12;18.80;99.90
52058;DHT22;38063;53.210;6.504;2023-09-08T07:20:38;18.90;99.90
52058;DHT22;38063;53.210;6.504;2023-09-08T07:23:05;18.90;99.90
52058;DHT22;38063;53.210;6.504;2023-09-08T07:25:31;19.20;99.90
52058;DHT22;38063;53.210;6.504;2023-09-08T07:27:56;19.20;99.90
52058;DHT22;38063;53.210;6.504;2023-09-08T07:30:22;19.40;99.90
52058;DHT22;38063;53.210;6.504;2023-09-08T07:32:48;19.60;99.90
52058;DHT22;38063;53.210;6.504;2023-09-08T07:35:14;19.80;99.90
52058;DHT22;38063;53.210;6.504;2023-09-08T07:37:41;20.00;99.90
52058;DHT22;38063;53.210;6.504;2023-09-08T07:40:11;20.10;99.90
52058;DHT22;38063;53.210;6.504;2023-09-08T07:42:37;20.30;99.90
52058;DHT22;38063;53.210;6.504;2023-09-08T07:45:03;20.60;99.90
52058;DHT22;38063;53.210;6.504;2023-09-08T07:47:28;20.80;99.90
52058;DHT22;38063;53.210;6.504;2023-09-08T07:50:24;21.00;99.90
52058;DHT22;38063;53.210;6.504;2023-09-08T07:52:51;21.30;99.90
52058;DHT22;38063;53.210;6.504;2023-09-08T07:55:17;21.60;99.90
52058;DHT22;38063;53.210;6.504;2023-09-08T07:57:44;21.80;99.90
52058;DHT22;38063;53.210;6.504;2023-09-08T08:00:12;22.00;99.90
52058;DHT22;38063;53.210;6.504;2023-09-08T08:02:42;22.30;99.90
52058;DHT22;38063;53.210;6.504;2023-09-08T08:05:09;22.50;99.90
52058;DHT22;38063;53.210;6.504;2023-09-08T08:07:35;23.00;99.90
52058;DHT22;38063;53.210;6.504;2023-09-08T08:10:01;22.90;99.90
52058;DHT22;38063;53.210;6.504;2023-09-08T08:12:27;23.20;99.90
52058;DHT22;38063;53.210;6.504;2023-09-08T08:14:53;23.30;99.90
52058;DHT22;38063;53.210;6.504;2023-09-08T08:17:18;23.50;99.90
52058;DHT22;38063;53.210;6.504;2023-09-08T08:19:45;23.60;99.90
52058;DHT22;38063;53.210;6.504;2023-09-08T08:22:11;23.90;99.90
52058;DHT22;38063;53.210;6.504;2023-09-08T08:24:36;24.10;99.90
52058;DHT22;38063;53.210;6.504;2023-09-08T08:27:02;24.20;99.90
52058;DHT22;38063;53.210;6.504;2023-09-08T08:29:29;24.50;99.90
52058;DHT22;38063;53.210;6.504;2023-09-08T08:31:55;24.70;99.90
52058;DHT22;38063;53.210;6.504;2023-09-08T08:34:20;24.90;99.90
52058;DHT22;38063;53.210;6.504;2023-09-08T08:36:46;25.10;99.90
52058;DHT22;38063;53.210;6.504;2023-09-08T08:39:12;25.30;99.90
52058;DHT22;38063;53.210;6.504;2023-09-08T08:41:37;25.50;99.90
52058;DHT22;38063;53.210;6.504;2023-09-08T08:44:08;25.70;99.90
52058;DHT22;38063;53.210;6.504;2023-09-08T08:46:35;25.90;99.90
52058;DHT22;38063;53.210;6.504;2023-09-08T08:49:03;26.10;99.90
52058;DHT22;38063;53.210;6.504;2023-09-08T08:51:30;26.30;99.90
52058;DHT22;38063;53.210;6.504;2023-09-08T08:53:57;26.40;99.90
52058;DHT22;38063;53.210;6.504;2023-09-08T08:56:23;26.70;99.90
52058;DHT22;38063;53.210;6.504;2023-09-08T08:58:49;26.90;99.90
52058;DHT22;38063;53.210;6.504;2023-09-08T09:01:18;27.00;99.90
52058;DHT22;38063;53.210;6.504;2023-09-08T09:03:49;27.20;99.90
52058;DHT22;38063;53.210;6.504;2023-09-08T09:06:15;27.50;99.90
52058;DHT22;38063;53.210;6.504;2023-09-08T09:08:45;27.60;99.90
52058;DHT22;38063;53.210;6.504;2023-09-08T09:11:12;27.80;99.90
52058;DHT22;38063;53.210;6.504;2023-09-08T09:13:37;28.00;99.90
52058;DHT22;38063;53.210;6.504;2023-09-08T09:16:03;28.10;99.90
52058;DHT22;38063;53.210;6.504;2023-09-08T09:18:32;28.30;99.90
52058;DHT22;38063;53.210;6.504;2023-09-08T09:21:01;28.40;99.90
52058;DHT22;38063;53.210;6.504;2023-09-08T09:23:31;28.60;99.90
52058;DHT22;38063;53.210;6.504;2023-09-08T09:25:58;28.70;99.90
52058;DHT22;38063;53.210;6.504;2023-09-08T09:28:24;28.90;99.90
52058;DHT22;38063;53.210;6.504;2023-09-08T09:30:52;29.00;99.90
52058;DHT22;38063;53.210;6.504;2023-09-08T09:33:20;29.10;99.80
52058;DHT22;38063;53.210;6.504;2023-09-08T09:35:56;29.30;99.60
52058;DHT22;38063;53.210;6.504;2023-09-08T09:38:26;29.50;99.00
52058;DHT22;38063;53.210;6.504;2023-09-08T09:40:52;29.60;98.60
52058;DHT22;38063;53.210;6.504;2023-09-08T09:43:21;29.70;98.60
52058;DHT22;38063;53.210;6.504;2023-09-08T09:45:47;29.90;97.80
52058;DHT22;38063;53.210;6.504;2023-09-08T09:48:13;30.00;97.20
52058;DHT22;38063;53.210;6.504;2023-09-08T09:50:41;30.20;96.80
52058;DHT22;38063;53.210;6.504;2023-09-08T09:53:14;30.20;96.30
52058;DHT22;38063;53.210;6.504;2023-09-08T09:55:42;30.40;95.70
52058;DHT22;38063;53.210;6.504;2023-09-08T09:58:09;30.40;95.00
52058;DHT22;38063;53.210;6.504;2023-09-08T10:00:36;30.50;94.50
52058;DHT22;38063;53.210;6.504;2023-09-08T10:03:04;30.70;94.30
52058;DHT22;38063;53.210;6.504;2023-09-08T10:05:30;30.70;93.80
52058;DHT22;38063;53.210;6.504;2023-09-08T10:07:55;30.90;93.70
52058;DHT22;38063;53.210;6.504;2023-09-08T10:10:22;31.10;93.40
52058;DHT22;38063;53.210;6.504;2023-09-08T10:12:55;31.20;93.10
52058;DHT22;38063;53.210;6.504;2023-09-08T10:15:24;31.30;92.70
52058;DHT22;38063;53.210;6.504;2023-09-08T10:17:56;31.40;92.70
52058;DHT22;38063;53.210;6.504;2023-09-08T10:20:27;31.60;92.10
52058;DHT22;38063;53.210;6.504;2023-09-08T10:25:31;31.70;91.90
52058;DHT22;38063;53.210;6.504;2023-09-08T10:28:01;31.90;91.80
52058;DHT22;38063;53.210;6.504;2023-09-08T10:30:27;31.90;91.20
52058;DHT22;38063;53.210;6.504;2023-09-08T10:32:54;32.10;90.90
52058;DHT22;38063;53.210;6.504;2023-09-08T10:35:20;32.10;90.60
52058;DHT22;38063;53.210;6.504;2023-09-08T10:37:46;32.20;90.30
52058;DHT22;38063;53.210;6.504;2023-09-08T10:40:24;32.30;90.30
52058;DHT22;38063;53.210;6.504;2023-09-08T10:43:08;32.40;87.20
52058;DHT22;38063;53.210;6.504;2023-09-08T10:45:35;32.40;86.50
52058;DHT22;38063;53.210;6.504;2023-09-08T10:48:01;32.50;87.10
52058;DHT22;38063;53.210;6.504;2023-09-08T10:50:38;32.60;86.40
52058;DHT22;38063;53.210;6.504;2023-09-08T10:53:15;32.70;85.20
52058;DHT22;38063;53.210;6.504;2023-09-08T10:55:45;32.80;85.50
52058;DHT22;38063;53.210;6.504;2023-09-08T10:58:31;32.80;84.30
52058;DHT22;38063;53.210;6.504;2023-09-08T11:01:13;32.80;85.30
52058;DHT22;38063;53.210;6.504;2023-09-08T11:06:06;32.90;85.00
52058;DHT22;38063;53.210;6.504;2023-09-08T11:08:33;33.00;86.20
52058;DHT22;38063;53.210;6.504;2023-09-08T11:10:59;33.10;84.90
52058;DHT22;38063;53.210;6.504;2023-09-08T11:13:27;33.20;84.40
52058;DHT22;38063;53.210;6.504;2023-09-08T11:15:54;33.30;85.00
52058;DHT22;38063;53.210;6.504;2023-09-08T11:18:26;33.30;84.80
52058;DHT22;38063;53.210;6.504;2023-09-08T11:20:52;33.40;84.00
52058;DHT22;38063;53.210;6.504;2023-09-08T11:23:19;33.40;84.10
52058;DHT22;38063;53.210;6.504;2023-09-08T11:25:46;33.50;84.50
52058;DHT22;38063;53.210;6.504;2023-09-08T11:28:12;33.60;83.80
52058;DHT22;38063;53.210;6.504;2023-09-08T11:30:39;33.70;84.20
52058;DHT22;38063;53.210;6.504;2023-09-08T11:33:17;33.70;82.70
52058;DHT22;38063;53.210;6.504;2023-09-08T11:35:45;33.70;81.60
52058;DHT22;38063;53.210;6.504;2023-09-08T11:38:11;33.70;81.30
52058;DHT22;38063;53.210;6.504;2023-09-08T11:40:37;33.70;80.30
52058;DHT22;38063;53.210;6.504;2023-09-08T11:43:04;33.80;80.10
52058;DHT22;38063;53.210;6.504;2023-09-08T11:45:33;33.90;79.90
52058;DHT22;38063;53.210;6.504;2023-09-08T11:47:59;33.90;79.00
52058;DHT22;38063;53.210;6.504;2023-09-08T11:50:25;33.90;78.80
52058;DHT22;38063;53.210;6.504;2023-09-08T11:52:53;33.90;79.10
52058;DHT22;38063;53.210;6.504;2023-09-08T11:55:20;34.00;78.30
52058;DHT22;38063;53.210;6.504;2023-09-08T11:57:49;34.00;77.50
52058;DHT22;38063;53.210;6.504;2023-09-08T12:00:19;34.00;78.20
52058;DHT22;38063;53.210;6.504;2023-09-08T12:02:48;34.00;78.00
52058;DHT22;38063;53.210;6.504;2023-09-08T12:05:24;34.00;78.60
52058;DHT22;38063;53.210;6.504;2023-09-08T12:07:55;34.00;78.60
52058;DHT22;38063;53.210;6.504;2023-09-08T12:10:22;34.10;77.10
52058;DHT22;38063;53.210;6.504;2023-09-08T12:12:50;34.10;77.40
52058;DHT22;38063;53.210;6.504;2023-09-08T12:15:36;34.00;76.40
52058;DHT22;38063;53.210;6.504;2023-09-08T12:18:07;34.10;77.70
52058;DHT22;38063;53.210;6.504;2023-09-08T12:20:34;34.00;76.10
52058;DHT22;38063;53.210;6.504;2023-09-08T12:23:02;34.00;75.70
52058;DHT22;38063;53.210;6.504;2023-09-08T12:25:28;34.10;75.40
52058;DHT22;38063;53.210;6.504;2023-09-08T12:27:54;34.10;75.10
52058;DHT22;38063;53.210;6.504;2023-09-08T12:30:23;34.20;74.70
52058;DHT22;38063;53.210;6.504;2023-09-08T12:32:59;34.30;75.30
52058;DHT22;38063;53.210;6.504;2023-09-08T12:35:25;34.40;75.00
52058;DHT22;38063;53.210;6.504;2023-09-08T12:38:02;34.40;74.60
52058;DHT22;38063;53.210;6.504;2023-09-08T12:40:29;34.40;73.20
52058;DHT22;38063;53.210;6.504;2023-09-08T12:42:55;34.40;73.60
52058;DHT22;38063;53.210;6.504;2023-09-08T12:45:22;34.40;73.80
52058;DHT22;38063;53.210;6.504;2023-09-08T12:47:50;34.40;73.50
52058;DHT22;38063;53.210;6.504;2023-09-08T12:50:16;34.40;72.40
52058;DHT22;38063;53.210;6.504;2023-09-08T12:52:42;34.40;72.20
52058;DHT22;38063;53.210;6.504;2023-09-08T12:55:08;34.40;71.40
52058;DHT22;38063;53.210;6.504;2023-09-08T12:57:35;34.40;72.20
52058;DHT22;38063;53.210;6.504;2023-09-08T13:00:01;34.30;71.80
52058;DHT22;38063;53.210;6.504;2023-09-08T13:02:27;34.40;72.50
52058;DHT22;38063;53.210;6.504;2023-09-08T13:04:52;34.30;71.10
52058;DHT22;38063;53.210;6.504;2023-09-08T13:07:18;34.30;70.80
52058;DHT22;38063;53.210;6.504;2023-09-08T13:09:44;34.30;70.40
52058;DHT22;38063;53.210;6.504;2023-09-08T13:12:10;34.30;71.40
52058;DHT22;38063;53.210;6.504;2023-09-08T13:14:38;34.30;71.60
52058;DHT22;38063;53.210;6.504;2023-09-08T13:17:03;34.30;70.30
52058;DHT22;38063;53.210;6.504;2023-09-08T13:19:29;34.30;70.30
52058;DHT22;38063;53.210;6.504;2023-09-08T13:21:55;34.30;70.60
52058;DHT22;38063;53.210;6.504;2023-09-08T13:24:21;34.30;70.60
52058;DHT22;38063;53.210;6.504;2023-09-08T13:26:47;34.30;69.70
52058;DHT22;38063;53.210;6.504;2023-09-08T13:29:14;34.30;69.90
52058;DHT22;38063;53.210;6.504;2023-09-08T13:31:39;34.20;70.70
52058;DHT22;38063;53.210;6.504;2023-09-08T13:34:05;34.20;70.40
52058;DHT22;38063;53.210;6.504;2023-09-08T13:36:31;34.10;68.90
52058;DHT22;38063;53.210;6.504;2023-09-08T13:38:56;34.10;69.00
52058;DHT22;38063;53.210;6.504;2023-09-08T13:41:23;34.10;69.10
52058;DHT22;38063;53.210;6.504;2023-09-08T13:43:49;34.00;68.80
52058;DHT22;38063;53.210;6.504;2023-09-08T13:46:15;34.00;68.50
52058;DHT22;38063;53.210;6.504;2023-09-08T13:48:40;34.00;68.60
52058;DHT22;38063;53.210;6.504;2023-09-08T13:51:06;34.00;69.20
52058;DHT22;38063;53.210;6.504;2023-09-08T13:53:32;34.00;67.90
52058;DHT22;38063;53.210;6.504;2023-09-08T13:55:58;34.00;67.80
52058;DHT22;38063;53.210;6.504;2023-09-08T13:58:24;33.90;69.40
52058;DHT22;38063;53.210;6.504;2023-09-08T14:00:50;34.00;69.00
52058;DHT22;38063;53.210;6.504;2023-09-08T14:03:17;33.90;68.30
52058;DHT22;38063;53.210;6.504;2023-09-08T14:05:44;33.80;68.70
52058;DHT22;38063;53.210;6.504;2023-09-08T14:08:09;33.80;68.90
52058;DHT22;38063;53.210;6.504;2023-09-08T14:10:35;33.70;68.60
52058;DHT22;38063;53.210;6.504;2023-09-08T14:13:01;33.70;68.30
52058;DHT22;38063;53.210;6.504;2023-09-08T14:15:26;33.60;69.00
52058;DHT22;38063;53.210;6.504;2023-09-08T14:17:52;33.60;69.60
52058;DHT22;38063;53.210;6.504;2023-09-08T14:20:18;33.60;68.50
52058;DHT22;38063;53.210;6.504;2023-09-08T14:22:44;33.50;68.40
52058;DHT22;38063;53.210;6.504;2023-09-08T14:25:10;33.50;68.60
52058;DHT22;38063;53.210;6.504;2023-09-08T14:27:36;33.40;68.80
52058;DHT22;38063;53.210;6.504;2023-09-08T14:30:04;33.40;69.30
52058;DHT22;38063;53.210;6.504;2023-09-08T14:32:30;33.40;69.00
52058;DHT22;38063;53.210;6.504;2023-09-08T14:34:56;33.30;69.00
52058;DHT22;38063;53.210;6.504;2023-09-08T14:37:22;33.30;68.60
52058;DHT22;38063;53.210;6.504;2023-09-08T14:39:48;33.30;69.10
52058;DHT22;38063;53.210;6.504;2023-09-08T14:42:14;33.20;69.20
52058;DHT22;38063;53.210;6.504;2023-09-08T14:44:41;33.20;69.30
52058;DHT22;38063;53.210;6.504;2023-09-08T14:47:06;33.20;70.30
52058;DHT22;38063;53.210;6.504;2023-09-08T14:49:32;33.20;69.40
52058;DHT22;38063;53.210;6.504;2023-09-08T14:51:58;33.20;69.30
52058;DHT22;38063;53.210;6.504;2023-09-08T14:54:24;33.20;69.20
52058;DHT22;38063;53.210;6.504;2023-09-08T14:56:51;33.00;68.90
52058;DHT22;38063;53.210;6.504;2023-09-08T14:59:16;33.00;69.20
52058;DHT22;38063;53.210;6.504;2023-09-08T15:01:42;32.90;70.30
52058;DHT22;38063;53.210;6.504;2023-09-08T15:04:10;32.80;70.10
52058;DHT22;38063;53.210;6.504;2023-09-08T15:06:36;32.80;70.50
52058;DHT22;38063;53.210;6.504;2023-09-08T15:09:02;32.90;70.00
52058;DHT22;38063;53.210;6.504;2023-09-08T15:11:28;32.80;69.40
52058;DHT22;38063;53.210;6.504;2023-09-08T15:13:53;32.80;69.20
52058;DHT22;38063;53.210;6.504;2023-09-08T15:16:19;32.80;70.30
52058;DHT22;38063;53.210;6.504;2023-09-08T15:18:45;32.80;69.40
52058;DHT22;38063;53.210;6.504;2023-09-08T15:21:10;32.80;70.50
52058;DHT22;38063;53.210;6.504;2023-09-08T15:23:36;32.80;69.90
52058;DHT22;38063;53.210;6.504;2023-09-08T15:26:01;32.70;69.40
52058;DHT22;38063;53.210;6.504;2023-09-08T15:28:27;32.60;69.30
52058;DHT22;38063;53.210;6.504;2023-09-08T15:30:53;32.60;69.50
52058;DHT22;38063;53.210;6.504;2023-09-08T15:33:20;32.50;70.00
52058;DHT22;38063;53.210;6.504;2023-09-08T15:35:47;32.50;70.30
52058;DHT22;38063;53.210;6.504;2023-09-08T15:38:14;32.40;70.10
52058;DHT22;38063;53.210;6.504;2023-09-08T15:43:41;32.40;70.60
52058;DHT22;38063;53.210;6.504;2023-09-08T15:46:07;32.30;70.90
52058;DHT22;38063;53.210;6.504;2023-09-08T15:48:33;32.20;71.30